TimeEDT,TemperatureF,Dew PointF,Humidity,Sea Level PressureIn,VisibilityMPH,Wind Direction,Wind SpeedMPH,Gust SpeedMPH,PrecipitationIn,Events,Conditions,WindDirDegrees,DateUTC
12:53 AM,46.0,43.0,89,30.08,10.0,Calm,Calm,-,N/A,,Mostly Cloudy,0,2013-09-30 04:53:00
1:53 AM,48.0,44.1,86,30.06,10.0,Calm,Calm,-,N/A,,Scattered Clouds,0,2013-09-30 05:53:00
2:53 AM,45.0,44.1,97,30.06,8.0,Calm,Calm,-,N/A,,Clear,0,2013-09-30 06:53:00
3:06 AM,42.8,42.8,100,30.05,1.8,Calm,Calm,-,N/A,,Clear,0,2013-09-30 07:06:00
3:15 AM,42.8,39.2,87,30.05,0.5,Calm,Calm,-,N/A,Fog,Fog,0,2013-09-30 07:15:00
3:20 AM,44.6,42.8,93,30.05,1.2,Calm,Calm,-,N/A,,Partly Cloudy,0,2013-09-30 07:20:00
3:25 AM,44.6,42.8,93,30.05,3.0,Calm,Calm,-,N/A,,Clear,0,2013-09-30 07:25:00
3:53 AM,45.0,42.1,90,30.05,10.0,Calm,Calm,-,N/A,,Clear,0,2013-09-30 07:53:00
4:23 AM,42.8,41.0,93,30.06,1.5,Calm,Calm,-,N/A,,Clear,0,2013-09-30 08:23:00
4:31 AM,39.2,39.2,100,30.06,0.8,Calm,Calm,-,N/A,,Clear,0,2013-09-30 08:31:00
4:43 AM,44.6,41.0,87,30.06,2.0,Calm,Calm,-,N/A,,Clear,0,2013-09-30 08:43:00
4:51 AM,42.8,42.8,100,30.06,10.0,Calm,Calm,-,N/A,,Clear,0,2013-09-30 08:51:00
4:53 AM,43.0,42.1,97,30.06,10.0,Calm,Calm,-,N/A,,Clear,0,2013-09-30 08:53:00
5:03 AM,42.8,41.0,93,30.06,2.5,Calm,Calm,-,N/A,,Scattered Clouds,0,2013-09-30 09:03:00
5:09 AM,44.6,42.8,93,30.06,3.0,Calm,Calm,-,N/A,,Mostly Cloudy,0,2013-09-30 09:09:00
5:18 AM,42.8,42.8,100,30.06,2.0,Calm,Calm,-,N/A,,Mostly Cloudy,0,2013-09-30 09:18:00
5:34 AM,42.8,42.8,100,30.06,0.8,Calm,Calm,-,N/A,,Overcast,0,2013-09-30 09:34:00
5:53 AM,44.1,42.1,93,30.07,0.8,Calm,Calm,-,N/A,,Mist,0,2013-09-30 09:53:00
6:05 AM,42.8,41.0,93,30.07,0.2,Calm,Calm,-,N/A,Fog,Fog,0,2013-09-30 10:05:00
6:12 AM,42.8,41.0,93,30.07,0.5,Calm,Calm,-,N/A,Fog,Fog,0,2013-09-30 10:12:00
6:25 AM,42.8,42.8,100,30.07,1.0,Calm,Calm,-,N/A,,Mist,0,2013-09-30 10:25:00
6:50 AM,44.6,42.8,93,30.08,0.5,Calm,Calm,-,N/A,Fog,Fog,0,2013-09-30 10:50:00
6:53 AM,44.1,42.1,93,30.08,0.5,Calm,Calm,-,N/A,Fog,Fog,0,2013-09-30 10:53:00
7:00 AM,42.8,42.8,100,30.08,0.2,Calm,Calm,-,N/A,Fog,Fog,0,2013-09-30 11:00:00
7:23 AM,42.8,42.8,100,30.08,1.0,Calm,Calm,-,N/A,,Overcast,0,2013-09-30 11:23:00
7:30 AM,42.8,42.8,100,30.08,0.2,Calm,Calm,-,N/A,Fog,Fog,0,2013-09-30 11:30:00
7:53 AM,44.1,43.0,96,30.09,0.2,Calm,Calm,-,N/A,Fog,Fog,0,2013-09-30 11:53:00
8:53 AM,46.0,45.0,96,30.09,0.1,Calm,Calm,-,N/A,Fog,Fog,0,2013-09-30 12:53:00
9:16 AM,46.4,46.4,100,30.07,0.2,Calm,Calm,-,N/A,Fog,Fog,0,2013-09-30 13:16:00
9:28 AM,48.2,46.4,93,30.08,1.0,Calm,Calm,-,N/A,,Overcast,0,2013-09-30 13:28:00
9:36 AM,48.2,46.4,93,30.08,0.8,Calm,Calm,-,N/A,,Overcast,0,2013-09-30 13:36:00
9:45 AM,48.2,46.4,93,30.07,1.0,Calm,Calm,-,N/A,,Mostly Cloudy,0,2013-09-30 13:45:00
9:53 AM,50.0,48.0,93,30.09,3.0,Calm,Calm,-,N/A,,Mostly Cloudy,0,2013-09-30 13:53:00
9:59 AM,51.8,48.2,88,30.07,10.0,Calm,Calm,-,N/A,,Scattered Clouds,0,2013-09-30 13:59:00
10:53 AM,55.9,50.0,80,30.07,10.0,Calm,Calm,-,N/A,,Clear,0,2013-09-30 14:53:00
11:53 AM,66.0,52.0,60,30.03,10.0,Calm,Calm,-,N/A,,Clear,0,2013-09-30 15:53:00
12:53 PM,73.0,53.1,49,30.02,10.0,Calm,Calm,-,N/A,,Clear,0,2013-09-30 16:53:00
1:53 PM,73.9,52.0,46,29.99,10.0,SW,8.1,-,N/A,,Clear,220,2013-09-30 17:53:00
2:53 PM,73.9,51.1,45,29.97,10.0,Calm,Calm,-,N/A,,Scattered Clouds,0,2013-09-30 18:53:00
3:53 PM,77.0,51.1,40,29.96,10.0,ENE,3.5,-,N/A,,Partly Cloudy,60,2013-09-30 19:53:00
4:19 PM,75.2,50.0,41,29.96,10.0,WSW,8.1,-,N/A,,Scattered Clouds,240,2013-09-30 20:19:00
4:53 PM,75.0,52.0,44,29.95,10.0,SSW,6.9,-,N/A,,Clear,200,2013-09-30 20:53:00
5:53 PM,73.9,54.0,50,29.95,10.0,Calm,Calm,-,N/A,,Clear,0,2013-09-30 21:53:00
6:53 PM,64.0,54.0,70,29.97,10.0,Calm,Calm,-,N/A,,Partly Cloudy,0,2013-09-30 22:53:00
7:53 PM,60.1,53.1,78,29.99,10.0,Calm,Calm,-,N/A,,Partly Cloudy,0,2013-09-30 23:53:00
8:53 PM,62.1,55.0,78,30.00,10.0,Calm,Calm,-,N/A,,Overcast,0,2013-10-01 00:53:00
9:53 PM,55.9,53.1,90,30.01,9.0,Calm,Calm,-,N/A,,Partly Cloudy,0,2013-10-01 01:53:00
10:53 PM,55.0,51.1,86,30.01,9.0,Calm,Calm,-,N/A,,Clear,0,2013-10-01 02:53:00
11:53 PM,52.0,48.9,89,30.00,7.0,Calm,Calm,-,N/A,,Clear,0,2013-10-01 03:53:00